Time;durP1;ratioP1;P1;durP2;ratioP2;P2;SDS_P1;SDS_P2;PMS_P1;PMS_P2;Temp;Humidity;BMP_temperature;BMP_pressure;BME280_temperature;BME280_humidity;BME280_pressure;Samples;Min_cycle;Max_cycle;Signal;HPM_P1;HPM_P2
2024/03/03 00:01:03;;;;;;;;;;;;;;;6.42;60.47;99485.79;109619;1252;72832;-66
2024/03/03 00:03:30;;;;;;;;;;;;;;;6.48;60.13;99483.48;109458;1252;59653;-66
2024/03/03 00:06:02;;;;;;;;;;;;;;;6.38;60.29;99485.80;109591;1253;59897;-66
2024/03/03 00:08:30;;;;;;;;;;;;;;;6.35;60.47;99484.54;109331;1254;73926;-68
2024/03/03 00:10:57;;;;;;;;;;;;;;;6.20;60.98;99483.27;109592;1252;67623;-65
2024/03/03 00:13:27;;;;;;;;;;;;;;;6.11;61.74;99481.98;109552;1254;72772;-66
2024/03/03 00:15:55;;;;;;;;;;;;;;;6.16;61.57;99478.33;109592;1253;59138;-66
2024/03/03 00:18:23;;;;;;;;;;;;;;;6.11;62.06;99475.27;109616;1252;59860;-66
2024/03/03 00:20:50;;;;;;;;;;;;;;;6.26;61.28;99478.56;109589;1252;72656;-64
2024/03/03 00:23:18;;;;;;;;;;;;;;;6.27;61.06;99480.14;108836;1253;1002216;-66
2024/03/03 00:25:45;;;;;;;;;;;;;;;6.32;60.60;99474.08;109458;1254;71731;-66
2024/03/03 00:28:13;;;;;;;;;;;;;;;6.32;60.53;99469.70;109445;1256;60940;-69
2024/03/03 00:30:40;;;;;;;;;;;;;;;6.21;60.93;99467.14;109498;1254;58693;-67
2024/03/03 00:33:08;;;;;;;;;;;;;;;5.92;61.86;99465.06;109442;1254;72656;-67
2024/03/03 00:35:35;;;;;;;;;;;;;;;5.95;62.03;99463.52;109506;1254;68797;-66
2024/03/03 00:38:03;;;;;;;;;;;;;;;5.97;61.87;99463.73;109445;1254;72784;-67
2024/03/03 00:40:32;;;;;;;;;;;;;;;5.82;62.70;99460.30;109192;1254;59477;-66
2024/03/03 00:43:00;;;;;;;;;;;;;;;5.86;62.99;99459.39;109438;1254;58905;-66
2024/03/03 00:45:27;;;;;;;;;;;;;;;5.87;62.75;99460.65;109468;1254;72682;-67
2024/03/03 00:47:55;;;;;;;;;;;;;;;5.82;63.15;99459.20;109460;1254;67244;-67
2024/03/03 00:50:22;;;;;;;;;;;;;;;5.77;63.17;99458.80;109441;1253;72778;-66
2024/03/03 00:52:54;;;;;;;;;;;;;;;5.74;63.52;99458.14;109455;1254;59618;-67
2024/03/03 00:55:22;;;;;;;;;;;;;;;5.79;63.34;99455.43;109596;1256;58598;-65
2024/03/03 00:57:50;;;;;;;;;;;;;;;5.88;63.25;99454.66;109605;1253;73901;-67
2024/03/03 01:00:17;;;;;;;;;;;;;;;5.89;63.16;99454.52;109533;1253;68673;-66
2024/03/03 01:02:45;;;;;;;;;;;;;;;5.97;62.87;99452.53;109534;1253;70891;-67
2024/03/03 01:05:13;;;;;;;;;;;;;;;5.95;62.72;99449.81;109578;1253;59642;-67
2024/03/03 01:07:40;;;;;;;;;;;;;;;5.90;63.18;99448.45;109571;1254;59880;-66
2024/03/03 01:10:09;;;;;;;;;;;;;;;5.83;63.50;99442.88;109228;1253;72919;-67
2024/03/03 01:12:37;;;;;;;;;;;;;;;5.79;63.75;99446.37;109600;1253;67574;-68
2024/03/03 01:15:05;;;;;;;;;;;;;;;5.80;63.98;99447.16;109591;1253;72835;-66
2024/03/03 01:17:32;;;;;;;;;;;;;;;5.79;64.01;99448.82;109461;1253;59049;-67
2024/03/03 01:20:00;;;;;;;;;;;;;;;5.81;63.91;99450.36;109548;1253;58886;-66
2024/03/03 01:22:28;;;;;;;;;;;;;;;5.84;64.03;99452.54;109643;1253;72400;-66
2024/03/03 01:24:55;;;;;;;;;;;;;;;5.83;64.26;99448.73;109582;1252;68805;-66
2024/03/03 01:27:23;;;;;;;;;;;;;;;5.92;63.86;99447.75;109630;1252;72732;-67
2024/03/03 01:29:50;;;;;;;;;;;;;;;5.79;64.47;99448.68;109599;1254;59362;-67
2024/03/03 01:32:17;;;;;;;;;;;;;;;5.68;65.10;99448.10;109554;1253;59685;-66
2024/03/03 01:34:45;;;;;;;;;;;;;;;5.66;65.55;99447.52;109491;1253;72601;-67
2024/03/03 01:37:12;;;;;;;;;;;;;;;5.84;64.79;99454.55;109621;1253;69296;-67
2024/03/03 01:39:42;;;;;;;;;;;;;;;5.75;65.13;99451.54;109553;1254;71516;-66
2024/03/03 01:42:10;;;;;;;;;;;;;;;5.73;65.51;99454.97;109580;1254;59209;-66
2024/03/03 01:44:37;;;;;;;;;;;;;;;5.64;66.12;99452.70;109572;1252;59865;-70
2024/03/03 01:47:05;;;;;;;;;;;;;;;5.81;65.30;99452.82;109562;1254;73672;-67
2024/03/03 01:49:33;;;;;;;;;;;;;;;5.78;65.45;99457.27;109523;1252;69010;-66
2024/03/03 01:52:01;;;;;;;;;;;;;;;5.86;64.91;99460.05;109654;1253;70659;-67
2024/03/03 01:54:28;;;;;;;;;;;;;;;5.91;64.57;99458.67;109503;1254;59698;-66
2024/03/03 01:56:55;;;;;;;;;;;;;;;5.98;64.11;99462.05;109676;1251;60006;-67
2024/03/03 01:59:23;;;;;;;;;;;;;;;5.95;64.08;99462.70;109597;1254;73909;-67
2024/03/03 02:01:50;;;;;;;;;;;;;;;5.86;64.41;99460.46;109636;1253;68783;-66
2024/03/03 02:04:18;;;;;;;;;;;;;;;5.74;64.91;99462.13;108809;1254;1002211;-66
2024/03/03 02:06:45;;;;;;;;;;;;;;;5.77;64.80;99461.46;109500;1253;59823;-66
2024/03/03 02:09:14;;;;;;;;;;;;;;;5.80;64.65;99460.42;109529;1253;59863;-67
2024/03/03 02:11:43;;;;;;;;;;;;;;;5.68;65.28;99459.50;109661;1252;74006;-66
2024/03/03 02:14:10;;;;;;;;;;;;;;;5.65;65.49;99463.06;109595;1253;67234;-68
2024/03/03 02:16:38;;;;;;;;;;;;;;;5.84;64.82;99462.54;109590;1253;72765;-67
2024/03/03 02:19:06;;;;;;;;;;;;;;;5.96;63.98;99465.52;109591;1254;61020;-66
2024/03/03 02:21:33;;;;;;;;;;;;;;;5.95;63.75;99464.98;109622;1252;58558;-66
2024/03/03 02:24:01;;;;;;;;;;;;;;;5.93;63.89;99462.91;109269;1254;72710;-67
2024/03/03 02:26:28;;;;;;;;;;;;;;;5.90;64.12;99460.11;109610;1254;68668;-67
2024/03/03 02:28:56;;;;;;;;;;;;;;;5.93;64.11;99456.85;109537;1254;71334;-66
2024/03/03 02:31:25;;;;;;;;;;;;;;;5.90;64.27;99459.88;109558;1254;60103;-67
2024/03/03 02:33:53;;;;;;;;;;;;;;;5.74;64.90;99459.09;109621;1253;60674;-67
2024/03/03 02:36:21;;;;;;;;;;;;;;;5.74;64.86;99460.33;109598;1254;73871;-67
2024/03/03 02:38:49;;;;;;;;;;;;;;;5.74;65.01;99460.41;109601;1255;68603;-67
2024/03/03 02:41:16;;;;;;;;;;;;;;;5.75;65.31;99462.31;109566;1255;73160;-66
2024/03/03 02:43:43;;;;;;;;;;;;;;;5.85;65.13;99460.43;109568;1252;59614;-67
2024/03/03 02:46:13;;;;;;;;;;;;;;;5.82;65.24;99460.10;109562;1253;59844;-67
2024/03/03 02:48:41;;;;;;;;;;;;;;;5.84;65.59;99461.17;109576;1253;73867;-67
2024/03/03 02:51:08;;;;;;;;;;;;;;;5.91;65.42;99464.55;109287;1253;67755;-67
2024/03/03 02:53:36;;;;;;;;;;;;;;;5.94;65.37;99467.30;109475;1253;72737;-67
2024/03/03 02:56:05;;;;;;;;;;;;;;;5.90;65.39;99465.54;109569;1256;58716;-66
2024/03/03 02:58:32;;;;;;;;;;;;;;;5.96;65.14;99469.73;109600;1254;59934;-68
2024/03/03 03:00:59;;;;;;;;;;;;;;;6.01;64.82;99469.71;109438;1254;71702;-67
2024/03/03 03:03:27;;;;;;;;;;;;;;;6.04;64.87;99471.80;109313;1254;66285;-67
2024/03/03 03:05:55;;;;;;;;;;;;;;;6.06;64.79;99470.95;109439;1254;72711;-68
2024/03/03 03:08:22;;;;;;;;;;;;;;;6.02;65.00;99470.40;109410;1253;60949;-68
2024/03/03 03:10:49;;;;;;;;;;;;;;;6.12;64.61;99474.46;109396;1254;58595;-69
2024/03/03 03:13:17;;;;;;;;;;;;;;;6.12;64.60;99470.52;109442;1254;73893;-68
2024/03/03 03:15:44;;;;;;;;;;;;;;;5.98;65.08;99468.40;109205;1253;68534;-67
2024/03/03 03:18:12;;;;;;;;;;;;;;;5.95;65.31;99468.69;109387;1253;72684;-67
2024/03/03 03:20:40;;;;;;;;;;;;;;;5.99;65.02;99469.01;109263;1254;59134;-67
2024/03/03 03:23:08;;;;;;;;;;;;;;;5.91;65.41;99472.61;109414;1254;59817;-67
2024/03/03 03:25:35;;;;;;;;;;;;;;;5.92;65.36;99469.60;109439;1254;72911;-69
2024/03/03 03:28:03;;;;;;;;;;;;;;;5.92;65.43;99466.71;109458;1254;67677;-67
2024/03/03 03:30:31;;;;;;;;;;;;;;;5.90;65.40;99466.35;109388;1254;71098;-68
2024/03/03 03:32:58;;;;;;;;;;;;;;;5.68;66.26;99467.13;109569;1254;59608;-68
2024/03/03 03:35:26;;;;;;;;;;;;;;;5.76;66.35;99466.06;109607;1251;58585;-69
2024/03/03 03:37:53;;;;;;;;;;;;;;;5.80;66.25;99465.54;109379;1259;73870;-69
2024/03/03 03:40:21;;;;;;;;;;;;;;;5.90;65.69;99464.91;109352;1251;67333;-69
2024/03/03 03:42:49;;;;;;;;;;;;;;;5.91;65.69;99467.48;109585;1251;70641;-68
2024/03/03 03:45:16;;;;;;;;;;;;;;;5.82;66.05;99460.63;109579;1256;59613;-68
2024/03/03 03:47:44;;;;;;;;;;;;;;;5.96;65.71;99465.17;109501;1251;58747;-67
2024/03/03 03:50:11;;;;;;;;;;;;;;;6.11;65.08;99464.78;109703;1251;73860;-67
2024/03/03 03:52:39;;;;;;;;;;;;;;;6.11;64.86;99470.35;109671;1251;67519;-69
2024/03/03 03:55:06;;;;;;;;;;;;;;;6.16;64.49;99469.14;109619;1253;72737;-68
2024/03/03 03:57:34;;;;;;;;;;;;;;;6.15;64.41;99463.83;109575;1254;59696;-68
2024/03/03 04:00:01;;;;;;;;;;;;;;;6.16;64.30;99461.34;109628;1257;60075;-68
2024/03/03 04:02:38;;;;;;;;;;;;;;;6.00;64.75;99463.17;109626;1254;73930;-69
2024/03/03 04:05:06;;;;;;;;;;;;;;;5.95;64.97;99459.58;109375;1253;67320;-68
2024/03/03 04:07:34;;;;;;;;;;;;;;;5.97;64.97;99462.02;109606;1252;72754;-69
2024/03/03 04:10:01;;;;;;;;;;;;;;;6.01;64.79;99462.50;109582;1254;59839;-69
2024/03/03 04:12:29;;;;;;;;;;;;;;;6.07;64.60;99467.02;109617;1254;59861;-70
2024/03/03 04:14:56;;;;;;;;;;;;;;;6.11;64.47;99467.33;109618;1254;73879;-68
2024/03/03 04:17:23;;;;;;;;;;;;;;;6.16;64.11;99461.95;109436;1254;200794;-68
2024/03/03 04:19:51;;;;;;;;;;;;;;;6.10;64.41;99462.70;109549;1254;72754;-68
2024/03/03 04:22:20;;;;;;;;;;;;;;;6.19;64.21;99468.15;109554;1256;59654;-68
2024/03/03 04:24:47;;;;;;;;;;;;;;;6.19;64.15;99464.84;109585;1253;59805;-69
2024/03/03 04:27:15;;;;;;;;;;;;;;;6.19;64.15;99464.92;109575;1254;72936;-68
2024/03/03 04:29:47;;;;;;;;;;;;;;;6.13;64.64;99465.28;109604;1254;68943;-69
2024/03/03 04:32:14;;;;;;;;;;;;;;;6.14;64.60;99464.08;109621;1254;72721;-68
2024/03/03 04:34:42;;;;;;;;;;;;;;;6.07;65.12;99469.80;109595;1253;59648;-69
2024/03/03 04:37:09;;;;;;;;;;;;;;;6.09;65.01;99468.73;109591;1254;59811;-69
2024/03/03 04:39:37;;;;;;;;;;;;;;;5.96;65.81;99470.27;109602;1253;73873;-69
2024/03/03 04:42:04;;;;;;;;;;;;;;;6.02;65.87;99470.42;109590;1254;68758;-68
2024/03/03 04:44:32;;;;;;;;;;;;;;;6.05;65.86;99469.95;109609;1253;71435;-70
2024/03/03 04:46:59;;;;;;;;;;;;;;;6.09;65.81;99471.83;109592;1254;62960;-69
2024/03/03 04:49:27;;;;;;;;;;;;;;;5.84;67.02;99465.73;109613;1253;58570;-68
2024/03/03 04:51:54;;;;;;;;;;;;;;;5.80;67.55;99463.73;109253;1254;72725;-68
2024/03/03 04:54:22;;;;;;;;;;;;;;;5.75;68.05;99467.52;109267;1253;68915;-68
2024/03/03 04:56:49;;;;;;;;;;;;;;;5.83;67.75;99465.13;109617;1251;71433;-67
2024/03/03 04:59:17;;;;;;;;;;;;;;;5.92;67.54;99461.66;109434;1251;60923;-68
2024/03/03 05:01:44;;;;;;;;;;;;;;;6.04;67.15;99463.86;109599;1254;58559;-67
2024/03/03 05:04:13;;;;;;;;;;;;;;;6.06;66.95;99464.36;109587;1254;72622;-67
2024/03/03 05:06:44;;;;;;;;;;;;;;;6.10;66.98;99463.48;109596;1254;67774;-68
2024/03/03 05:09:12;;;;;;;;;;;;;;;6.15;66.77;99459.27;109612;1254;72754;-68
2024/03/03 05:11:39;;;;;;;;;;;;;;;6.12;67.19;99463.75;109572;1253;60919;-68
2024/03/03 05:14:07;;;;;;;;;;;;;;;6.16;67.12;99464.34;109562;1253;59844;-69
2024/03/03 05:16:34;;;;;;;;;;;;;;;6.13;67.44;99459.14;109613;1254;73924;-68
2024/03/03 05:19:01;;;;;;;;;;;;;;;6.29;67.06;99464.20;109577;1252;68519;-69
2024/03/03 05:21:29;;;;;;;;;;;;;;;6.54;65.99;99457.26;109567;1252;72710;-68
2024/03/03 05:23:56;;;;;;;;;;;;;;;6.54;66.07;99446.63;109602;1255;59613;-68
2024/03/03 05:26:24;;;;;;;;;;;;;;;6.53;66.24;99451.73;109610;1254;59989;-68
2024/03/03 05:28:52;;;;;;;;;;;;;;;6.60;66.27;99463.67;109624;1252;72596;-68
2024/03/03 05:31:19;;;;;;;;;;;;;;;6.58;66.18;99462.20;109444;1255;68828;-68
2024/03/03 05:33:47;;;;;;;;;;;;;;;6.58;66.49;99463.10;109255;1254;71501;-69
2024/03/03 05:36:15;;;;;;;;;;;;;;;6.64;66.38;99468.77;109563;1254;60917;-68
2024/03/03 05:38:42;;;;;;;;;;;;;;;6.72;65.97;99460.91;109596;1253;59907;-68
2024/03/03 05:41:09;;;;;;;;;;;;;;;6.64;66.52;99473.21;109603;1253;72637;-68
2024/03/03 05:43:37;;;;;;;;;;;;;;;6.90;65.83;99470.20;109603;1254;67333;-69
2024/03/03 05:46:05;;;;;;;;;;;;;;;7.04;65.08;99475.55;109598;1252;72715;-68
2024/03/03 05:48:32;;;;;;;;;;;;;;;6.89;65.52;99474.56;109549;1254;61020;-69
2024/03/03 05:51:00;;;;;;;;;;;;;;;7.09;65.02;99472.98;109612;1253;58561;-68
2024/03/03 05:53:27;;;;;;;;;;;;;;;7.17;64.78;99475.28;109619;1252;72951;-69
2024/03/03 05:55:55;;;;;;;;;;;;;;;7.15;64.44;99473.21;109262;1253;67696;-69
2024/03/03 05:58:22;;;;;;;;;;;;;;;7.02;65.17;99472.13;109603;1254;71436;-69
2024/03/03 06:00:50;;;;;;;;;;;;;;;7.19;64.81;99473.20;109625;1253;59635;-69
2024/03/03 06:03:18;;;;;;;;;;;;;;;7.11;65.01;99471.90;109604;1251;58725;-67
2024/03/03 06:05:45;;;;;;;;;;;;;;;7.29;64.21;99473.37;109596;1251;72916;-67
2024/03/03 06:08:16;;;;;;;;;;;;;;;7.27;64.24;99473.48;109690;1251;68722;-66
2024/03/03 06:10:43;;;;;;;;;;;;;;;7.40;63.82;99472.64;109605;1254;72705;-67
2024/03/03 06:13:11;;;;;;;;;;;;;;;7.39;63.86;99466.90;109622;1251;60891;-66
2024/03/03 06:15:38;;;;;;;;;;;;;;;7.33;64.03;99473.66;109627;1251;60309;-67
2024/03/03 06:18:06;;;;;;;;;;;;;;;7.20;64.61;99469.55;109349;1251;72730;-66
2024/03/03 06:20:34;;;;;;;;;;;;;;;7.16;65.07;99471.02;109616;1251;68759;-68
2024/03/03 06:23:01;;;;;;;;;;;;;;;7.19;65.29;99468.77;109617;1251;71438;-67
2024/03/03 06:25:29;;;;;;;;;;;;;;;7.12;65.51;99468.20;108922;1251;1002589;-68
2024/03/03 06:27:57;;;;;;;;;;;;;;;7.22;65.37;99471.94;109628;1251;60295;-68
2024/03/03 06:30:25;;;;;;;;;;;;;;;7.28;65.34;99468.86;109657;1251;73934;-68
2024/03/03 06:32:53;;;;;;;;;;;;;;;7.46;64.95;99473.36;109652;1251;67712;-69
2024/03/03 06:35:20;;;;;;;;;;;;;;;7.52;64.27;99471.33;109600;1251;72742;-68
2024/03/03 06:37:50;;;;;;;;;;;;;;;7.49;64.19;99474.22;109617;1251;59259;-68
2024/03/03 06:40:18;;;;;;;;;;;;;;;7.49;64.60;99478.27;109700;1251;58582;-68
2024/03/03 06:42:45;;;;;;;;;;;;;;;7.75;63.58;99477.52;109374;1251;72628;-66
2024/03/03 06:45:13;;;;;;;;;;;;;;;7.73;63.42;99475.69;109647;1250;67443;-67
2024/03/03 06:47:40;;;;;;;;;;;;;;;7.77;62.87;99477.88;109270;1251;72772;-69
2024/03/03 06:50:08;;;;;;;;;;;;;;;7.58;63.70;99476.48;109564;1251;61134;-67
2024/03/03 06:52:35;;;;;;;;;;;;;;;7.51;64.05;99473.95;109649;1251;59841;-68
2024/03/03 06:55:03;;;;;;;;;;;;;;;7.90;63.28;99473.75;109489;1251;73872;-68
2024/03/03 06:57:30;;;;;;;;;;;;;;;8.00;62.56;99472.66;109630;1251;67335;-68
2024/03/03 06:59:58;;;;;;;;;;;;;;;7.96;62.92;99475.91;109647;1252;73664;-70
2024/03/03 07:02:56;;;;;;;;;;;;;;;7.71;63.90;99471.89;109589;1253;59849;-68
2024/03/03 07:05:13;;;;;;;;;;;;;;;8.00;62.29;99471.70;109588;1253;58612;-69
2024/03/03 07:07:40;;;;;;;;;;;;;;;8.25;61.49;99470.75;109511;1253;72771;-69
2024/03/03 07:10:09;;;;;;;;;;;;;;;8.70;60.77;99477.64;109610;1252;67534;-69
2024/03/03 07:12:37;;;;;;;;;;;;;;;9.64;58.04;99478.07;109556;1252;71504;-68
2024/03/03 07:15:04;;;;;;;;;;;;;;;9.71;55.74;99480.78;109392;1254;60871;-69
2024/03/03 07:17:32;;;;;;;;;;;;;;;9.55;55.93;99480.42;109593;1252;59866;-69
2024/03/03 07:20:02;;;;;;;;;;;;;;;9.32;57.01;99476.96;109428;1253;72598;-69
2024/03/03 07:22:34;;;;;;;;;;;;;;;9.30;56.25;99481.17;109590;1252;67989;-70
2024/03/03 07:25:02;;;;;;;;;;;;;;;9.45;56.25;99481.27;109597;1252;72729;-69
2024/03/03 07:27:30;;;;;;;;;;;;;;;9.84;54.33;99484.16;109582;1253;60131;-68
2024/03/03 07:29:57;;;;;;;;;;;;;;;9.78;54.31;99484.42;109579;1253;59874;-69
2024/03/03 07:32:28;;;;;;;;;;;;;;;10.07;52.84;99482.41;109622;1253;72013;-69
2024/03/03 07:34:56;;;;;;;;;;;;;;;10.16;51.93;99478.27;109547;1254;68834;-70
2024/03/03 07:37:24;;;;;;;;;;;;;;;10.11;51.18;99480.70;109359;1252;71519;-69
2024/03/03 07:39:51;;;;;;;;;;;;;;;9.85;50.78;99485.08;109601;1254;60916;-69
2024/03/03 07:42:19;;;;;;;;;;;;;;;9.75;50.57;99483.56;109591;1253;59904;-69
2024/03/03 07:44:46;;;;;;;;;;;;;;;9.84;50.02;99481.36;109243;1253;72676;-70
2024/03/03 07:47:14;;;;;;;;;;;;;;;9.86;49.80;99481.55;109572;1253;67287;-69
2024/03/03 07:49:44;;;;;;;;;;;;;;;10.47;48.48;99485.38;109464;1253;71445;-69
2024/03/03 07:52:12;;;;;;;;;;;;;;;10.75;47.87;99482.39;109608;1253;60940;-69
2024/03/03 07:54:40;;;;;;;;;;;;;;;10.57;47.71;99480.30;109575;1253;58949;-68
2024/03/03 07:57:08;;;;;;;;;;;;;;;11.19;46.74;99487.05;109603;1253;72634;-69
2024/03/03 07:59:35;;;;;;;;;;;;;;;11.52;45.68;99487.23;109655;1251;68909;-69
2024/03/03 08:02:02;;;;;;;;;;;;;;;11.34;44.99;99486.34;109637;1251;72702;-69
2024/03/03 08:04:30;;;;;;;;;;;;;;;11.47;44.91;99488.78;109643;1251;59362;-68
2024/03/03 08:06:57;;;;;;;;;;;;;;;11.06;45.05;99486.48;109666;1251;58557;-69
2024/03/03 08:09:25;;;;;;;;;;;;;;;10.73;45.39;99483.06;109667;1251;72739;-69
2024/03/03 08:11:53;;;;;;;;;;;;;;;10.55;45.50;99480.09;109593;1251;67534;-69
2024/03/03 08:14:20;;;;;;;;;;;;;;;10.89;45.13;99472.36;109712;1251;72486;-68
2024/03/03 08:16:48;;;;;;;;;;;;;;;11.17;44.87;99467.64;109680;1251;58453;-70
2024/03/03 08:19:15;;;;;;;;;;;;;;;11.85;43.57;99457.54;109700;1251;58741;-71
2024/03/03 08:21:42;;;;;;;;;;;;;;;12.19;42.37;99461.73;109687;1251;72596;-70
2024/03/03 08:24:10;;;;;;;;;;;;;;;12.26;42.10;99458.08;109706;1251;68809;-70
2024/03/03 08:26:37;;;;;;;;;;;;;;;12.44;41.92;99461.86;109624;1251;70461;-69
2024/03/03 08:29:06;;;;;;;;;;;;;;;12.35;41.69;99467.41;109445;1251;58194;-70
2024/03/03 08:31:35;;;;;;;;;;;;;;;12.01;41.87;99472.61;109699;1251;58579;-70
2024/03/03 08:34:03;;;;;;;;;;;;;;;12.16;41.71;99478.62;109628;1251;72613;-70
2024/03/03 08:36:30;;;;;;;;;;;;;;;12.09;42.05;99480.92;109712;1251;68786;-69
2024/03/03 08:38:58;;;;;;;;;;;;;;;12.10;42.30;99485.65;109619;1251;72840;-70
2024/03/03 08:41:25;;;;;;;;;;;;;;;12.08;42.04;99484.35;109634;1251;58136;-70
2024/03/03 08:43:53;;;;;;;;;;;;;;;11.55;42.80;99489.36;109655;1251;58231;-69
2024/03/03 08:46:20;;;;;;;;;;;;;;;11.47;43.08;99486.73;109741;1251;73867;-70
2024/03/03 08:48:48;;;;;;;;;;;;;;;11.71;43.10;99478.66;109461;1251;68763;-69
2024/03/03 08:51:15;;;;;;;;;;;;;;;11.43;43.52;99477.84;109724;1251;72714;-70
2024/03/03 08:53:43;;;;;;;;;;;;;;;11.03;43.76;99479.32;109205;1254;58191;-70
2024/03/03 08:56:10;;;;;;;;;;;;;;;11.09;43.84;99479.67;109288;1257;58613;-70
2024/03/03 08:58:37;;;;;;;;;;;;;;;11.51;43.51;99479.60;109192;1256;73884;-70
2024/03/03 09:01:05;;;;;;;;;;;;;;;11.80;42.91;99479.24;109302;1254;67445;-70
2024/03/03 09:03:34;;;;;;;;;;;;;;;11.61;42.88;99477.23;109428;1254;71767;-69
2024/03/03 09:06:02;;;;;;;;;;;;;;;11.49;43.50;99480.35;109405;1256;59336;-69
2024/03/03 09:08:29;;;;;;;;;;;;;;;11.64;43.05;99481.10;109315;1254;59882;-69
2024/03/03 09:11:01;;;;;;;;;;;;;;;11.49;43.22;99480.56;109358;1254;72461;-69
2024/03/03 09:13:28;;;;;;;;;;;;;;;11.71;42.72;99477.54;109432;1254;68536;-70
2024/03/03 09:15:56;;;;;;;;;;;;;;;11.69;42.87;99474.31;109326;1254;71431;-70
2024/03/03 09:18:23;;;;;;;;;;;;;;;12.19;42.20;99473.66;109303;1255;58971;-69
2024/03/03 09:20:51;;;;;;;;;;;;;;;12.43;41.45;99475.02;109409;1254;59020;-69
2024/03/03 09:23:18;;;;;;;;;;;;;;;12.53;41.06;99474.80;109169;1254;73402;-70
2024/03/03 09:25:46;;;;;;;;;;;;;;;12.16;41.31;99468.08;109414;1251;68607;-69
2024/03/03 09:28:13;;;;;;;;;;;;;;;11.84;41.85;99469.05;109615;1251;72695;-69
2024/03/03 09:30:41;;;;;;;;;;;;;;;11.99;41.57;99467.77;109619;1253;58993;-69
2024/03/03 09:33:08;;;;;;;;;;;;;;;12.09;41.50;99467.79;109712;1251;59815;-69
2024/03/03 09:35:38;;;;;;;;;;;;;;;12.68;40.70;99464.41;109694;1251;74810;-69
2024/03/03 09:38:07;;;;;;;;;;;;;;;12.45;40.80;99465.32;109628;1251;68401;-70
2024/03/03 09:40:36;;;;;;;;;;;;;;;12.68;40.33;99471.68;109714;1251;72749;-70
2024/03/03 09:43:04;;;;;;;;;;;;;;;12.92;40.11;99470.48;109654;1251;58944;-71
2024/03/03 09:45:32;;;;;;;;;;;;;;;12.79;39.99;99470.11;109718;1251;59584;-71
2024/03/03 09:47:59;;;;;;;;;;;;;;;12.70;40.33;99468.17;109723;1251;73467;-71
2024/03/03 09:50:27;;;;;;;;;;;;;;;13.04;39.38;99467.13;109603;1251;68528;-70
2024/03/03 09:52:58;;;;;;;;;;;;;;;12.43;40.07;99466.23;109658;1251;71604;-71
2024/03/03 09:55:25;;;;;;;;;;;;;;;11.97;40.70;99464.24;109555;1253;59459;-71
2024/03/03 09:57:53;;;;;;;;;;;;;;;12.10;40.65;99464.36;109222;1252;59123;-70
2024/03/03 10:00:22;;;;;;;;;;;;;;;12.47;40.19;99466.23;109629;1253;74758;-69
2024/03/03 10:02:49;;;;;;;;;;;;;;;12.53;39.97;99463.33;109284;1253;68820;-70
2024/03/03 10:05:17;;;;;;;;;;;;;;;12.68;39.26;99462.96;109231;1252;71785;-71
2024/03/03 10:07:48;;;;;;;;;;;;;;;12.97;38.75;99457.00;109440;1253;58902;-70
2024/03/03 10:10:17;;;;;;;;;;;;;;;13.16;38.12;99460.81;109500;1252;60030;-70
2024/03/03 10:12:45;;;;;;;;;;;;;;;12.99;38.18;99459.11;109620;1253;73020;-70
2024/03/03 10:15:12;;;;;;;;;;;;;;;13.00;37.70;99460.66;109622;1252;67436;-70
2024/03/03 10:17:40;;;;;;;;;;;;;;;13.32;37.22;99460.36;109629;1252;72689;-70
2024/03/03 10:20:08;;;;;;;;;;;;;;;13.06;37.43;99458.88;109623;1252;59296;-70
2024/03/03 10:22:36;;;;;;;;;;;;;;;13.22;37.02;99461.29;109610;1253;59901;-70
2024/03/03 10:25:10;;;;;;;;;;;;;;;13.00;37.30;99457.70;109617;1252;73446;-69
2024/03/03 10:27:39;;;;;;;;;;;;;;;12.98;37.74;99459.21;109240;1254;67734;-70
2024/03/03 10:30:07;;;;;;;;;;;;;;;13.08;37.68;99460.66;109630;1252;71437;-70
2024/03/03 10:32:37;;;;;;;;;;;;;;;12.71;38.01;99462.58;109626;1253;58945;-71
2024/03/03 10:35:07;;;;;;;;;;;;;;;12.61;38.05;99454.29;109363;1254;59920;-69
2024/03/03 10:37:34;;;;;;;;;;;;;;;12.75;37.89;99456.81;109664;1253;74706;-70
2024/03/03 10:40:05;;;;;;;;;;;;;;;13.16;37.76;99456.98;109623;1252;67288;-70
2024/03/03 10:42:32;;;;;;;;;;;;;;;13.12;37.16;99457.52;109592;1253;72765;-70
2024/03/03 10:45:00;;;;;;;;;;;;;;;13.20;37.07;99456.92;109578;1253;59026;-70
2024/03/03 10:47:28;;;;;;;;;;;;;;;13.36;36.61;99455.71;109485;1253;59871;-71
2024/03/03 10:49:56;;;;;;;;;;;;;;;13.67;36.45;99450.53;109206;1254;73479;-70
2024/03/03 10:52:23;;;;;;;;;;;;;;;13.50;36.24;99450.98;109468;1252;67605;-70
2024/03/03 10:54:52;;;;;;;;;;;;;;;13.27;36.63;99443.28;109470;1253;72751;-70
2024/03/03 10:57:20;;;;;;;;;;;;;;;12.87;36.82;99441.77;109592;1253;59285;-70
2024/03/03 10:59:47;;;;;;;;;;;;;;;13.04;36.76;99444.39;109611;1253;59036;-69
2024/03/03 11:02:14;;;;;;;;;;;;;;;13.16;36.62;99439.80;108949;1251;1002342;-70
2024/03/03 11:04:42;;;;;;;;;;;;;;;12.74;37.02;99431.34;109569;1253;68837;-70
2024/03/03 11:07:10;;;;;;;;;;;;;;;12.69;37.45;99431.30;109487;1251;72702;-70
2024/03/03 11:09:38;;;;;;;;;;;;;;;12.81;37.10;99436.02;109625;1251;59387;-71
2024/03/03 11:12:06;;;;;;;;;;;;;;;12.80;36.98;99432.19;109396;1251;59047;-71
2024/03/03 11:14:36;;;;;;;;;;;;;;;12.91;37.04;99433.86;109727;1251;74689;-71
2024/03/03 11:17:04;;;;;;;;;;;;;;;13.19;36.60;99435.09;109653;1251;67280;-69
2024/03/03 11:19:34;;;;;;;;;;;;;;;12.89;36.85;99432.56;109703;1251;71419;-69
2024/03/03 11:22:03;;;;;;;;;;;;;;;12.88;36.93;99438.38;109630;1251;58935;-71
2024/03/03 11:24:30;;;;;;;;;;;;;;;13.03;36.93;99439.06;109698;1251;59876;-70
2024/03/03 11:27:18;;;;;;;;;;;;;;;12.95;36.81;99436.48;109678;1251;73714;-70
2024/03/03 11:29:46;;;;;;;;;;;;;;;12.94;36.98;99431.00;109198;1256;68834;-70
2024/03/03 11:32:14;;;;;;;;;;;;;;;12.74;36.94;99426.87;109180;1256;70708;-70
2024/03/03 11:34:42;;;;;;;;;;;;;;;12.90;36.87;99427.28;109185;1256;59321;-70
2024/03/03 11:37:10;;;;;;;;;;;;;;;12.85;36.85;99429.93;109182;1256;59847;-71
2024/03/03 11:39:49;;;;;;;;;;;;;;;12.79;36.87;99429.56;109132;1257;74753;-70
2024/03/03 11:42:21;;;;;;;;;;;;;;;12.79;36.81;99424.48;109050;1256;68669;-69
2024/03/03 11:44:52;;;;;;;;;;;;;;;12.75;37.30;99426.86;109019;1257;72948;-69
2024/03/03 11:47:22;;;;;;;;;;;;;;;12.77;37.26;99428.91;109181;1256;59311;-71
2024/03/03 11:49:50;;;;;;;;;;;;;;;12.88;37.13;99430.41;109270;1256;59856;-70
2024/03/03 11:52:37;;;;;;;;;;;;;;;12.56;37.36;99432.59;109074;1256;74837;-70
2024/03/03 11:55:04;;;;;;;;;;;;;;;12.59;37.46;99423.00;109168;1256;67336;-69
2024/03/03 11:57:32;;;;;;;;;;;;;;;12.91;37.39;99422.43;108997;1260;72457;-69
2024/03/03 12:00:12;;;;;;;;;;;;;;;12.67;37.63;99420.85;108965;1262;59331;-69
2024/03/03 12:02:41;;;;;;;;;;;;;;;12.48;37.61;99410.89;109129;1258;59759;-69
2024/03/03 12:05:12;;;;;;;;;;;;;;;12.40;37.77;99420.53;108969;1260;74828;-70
2024/03/03 12:07:45;;;;;;;;;;;;;;;12.31;37.86;99422.19;109226;1254;68490;-70
2024/03/03 12:10:14;;;;;;;;;;;;;;;12.60;37.83;99428.29;109295;1254;70795;-71
2024/03/03 12:12:46;;;;;;;;;;;;;;;12.59;37.45;99421.92;109329;1254;59315;-70
2024/03/03 12:15:17;;;;;;;;;;;;;;;12.41;37.84;99422.05;109325;1254;59407;-70
2024/03/03 12:17:50;;;;;;;;;;;;;;;12.44;37.78;99420.14;109277;1254;73686;-70
2024/03/03 12:20:19;;;;;;;;;;;;;;;12.49;37.82;99417.61;109354;1254;67763;-70
2024/03/03 12:22:47;;;;;;;;;;;;;;;12.31;37.62;99416.44;109328;1254;72865;-70
2024/03/03 12:25:15;;;;;;;;;;;;;;;12.37;37.59;99415.41;109326;1254;58964;-70
2024/03/03 12:27:47;;;;;;;;;;;;;;;12.46;37.43;99414.93;109258;1254;59868;-70
2024/03/03 12:30:17;;;;;;;;;;;;;;;12.41;37.70;99413.52;109202;1254;73762;-70
2024/03/03 12:32:46;;;;;;;;;;;;;;;12.61;37.51;99413.58;109264;1254;67515;-71
2024/03/03 12:35:14;;;;;;;;;;;;;;;13.38;36.46;99419.95;109147;1254;72828;-70
2024/03/03 12:37:41;;;;;;;;;;;;;;;13.38;36.34;99414.88;109394;1254;59084;-70
2024/03/03 12:40:09;;;;;;;;;;;;;;;13.00;36.91;99415.89;109438;1254;59998;-70
2024/03/03 12:42:37;;;;;;;;;;;;;;;13.09;36.51;99417.98;109146;1254;73478;-71
2024/03/03 12:45:05;;;;;;;;;;;;;;;13.04;36.61;99419.77;109396;1254;67656;-70
2024/03/03 12:47:33;;;;;;;;;;;;;;;12.73;36.96;99417.98;109194;1254;72745;-70